Time;durP1;ratioP1;P1;durP2;ratioP2;P2;SDS_P1;SDS_P2;PMS_P1;PMS_P2;Temp;Humidity;BMP_temperature;BMP_pressure;BME280_temperature;BME280_humidity;BME280_pressure;Samples;Min_cycle;Max_cycle;Signal;HPM_P1;HPM_P2
2022/11/19 00:00:13;;;;;;;9.90;6.80;;;;;;;5.78;61.52;100301.84;696128;28;1286;-84
2022/11/19 00:00:33;;;;;;;9.48;6.40;;;;;;;5.72;61.44;100287.81;691055;28;771;-84
2022/11/19 00:00:54;;;;;;;9.32;6.50;;;;;;;5.68;60.99;100285.94;685216;28;1299;-85
2022/11/19 00:01:19;;;;;;;9.63;6.78;;;;;;;5.69;61.53;100292.88;686848;28;1208;-83
2022/11/19 00:01:40;;;;;;;9.20;6.60;;;;;;;5.64;61.73;100294.38;688093;28;1364;-84
2022/11/19 00:02:00;;;;;;;8.47;6.30;;;;;;;5.68;61.77;100295.38;688094;28;1164;-84
2022/11/19 00:02:21;;;;;;;8.13;6.47;;;;;;;5.66;61.46;100290.16;683357;28;1566;-84
2022/11/19 00:02:41;;;;;;;8.68;6.70;;;;;;;5.63;61.74;100286.56;692818;28;1372;-84
2022/11/19 00:03:02;;;;;;;9.75;7.00;;;;;;;5.66;61.49;100287.59;689275;28;1451;-84
2022/11/19 00:03:23;;;;;;;9.77;6.83;;;;;;;5.63;61.73;100295.22;693433;28;1268;-84
2022/11/19 00:03:44;;;;;;;9.38;6.90;;;;;;;5.70;61.85;100302.41;689442;28;1896;-84
2022/11/19 00:04:08;;;;;;;8.73;6.80;;;;;;;5.67;61.77;100299.69;693589;28;1269;-84
2022/11/19 00:04:28;;;;;;;9.00;7.10;;;;;;;5.64;61.37;100286.63;690394;28;854;-85
2022/11/19 00:04:49;;;;;;;9.75;7.20;;;;;;;5.70;61.49;100307.59;685621;28;1516;-84
2022/11/19 00:05:09;;;;;;;9.50;7.00;;;;;;;5.68;61.44;100297.97;688425;28;1845;-85
2022/11/19 00:05:30;;;;;;;9.83;6.97;;;;;;;5.71;61.26;100309.34;693326;28;987;-84
2022/11/19 00:05:51;;;;;;;9.30;6.70;;;;;;;5.70;61.40;100297.22;690718;28;1443;-84
2022/11/19 00:06:18;;;;;;;9.27;6.90;;;;;;;5.66;61.51;100297.94;687929;28;1198;-84
2022/11/19 00:06:39;;;;;;;9.15;7.07;;;;;;;5.68;61.39;100306.66;682866;28;1413;-84
2022/11/19 00:07:00;;;;;;;9.97;7.30;;;;;;;5.70;61.08;100301.53;685277;28;1164;-84
2022/11/19 00:07:20;;;;;;;9.95;7.10;;;;;;;5.61;61.18;100304.63;693385;28;1373;-85
2022/11/19 00:07:41;;;;;;;10.45;7.22;;;;;;;5.68;61.53;100309.22;694254;28;1129;-84
2022/11/19 00:08:02;;;;;;;10.07;7.20;;;;;;;5.63;61.39;100296.94;693346;28;1151;-85
2022/11/19 00:08:22;;;;;;;9.70;7.03;;;;;;;5.62;61.19;100311.56;687677;28;1272;-84
2022/11/19 00:08:44;;;;;;;9.55;7.07;;;;;;;5.66;61.15;100303.13;690141;28;1183;-84
2022/11/19 00:09:04;;;;;;;9.73;7.15;;;;;;;5.65;61.15;100311.69;685335;28;1077;-85
2022/11/19 00:09:25;;;;;;;11.48;7.60;;;;;;;5.60;61.28;100308.91;690081;28;1266;-85
2022/11/19 00:09:45;;;;;;;11.65;7.53;;;;;;;5.59;61.33;100299.38;687513;28;1488;-83
2022/11/19 00:10:06;;;;;;;12.17;7.60;;;;;;;5.47;61.45;100294.59;687601;28;1185;-84
2022/11/19 00:10:27;;;;;;;11.68;7.40;;;;;;;5.53;61.14;100311.19;696026;28;1280;-85
2022/11/19 00:10:47;;;;;;;12.15;7.65;;;;;;;5.57;61.39;100307.91;694287;28;1325;-84
2022/11/19 00:11:14;;;;;;;12.60;8.15;;;;;;;5.59;61.05;100317.50;688152;28;1301;-83
2022/11/19 00:12:53;;;;;;;11.00;7.53;;;;;;;5.59;60.93;100316.63;695854;28;1514;-84
2022/11/19 00:13:13;;;;;;;11.40;7.40;;;;;;;5.49;61.00;100305.00;693555;28;1236;-84
2022/11/19 00:13:34;;;;;;;12.05;7.90;;;;;;;5.46;61.06;100299.72;690670;28;1265;-84
2022/11/19 00:13:55;;;;;;;11.57;7.75;;;;;;;5.44;61.22;100302.22;682625;29;1086;-84
2022/11/19 00:14:15;;;;;;;11.40;8.00;;;;;;;5.48;61.09;100305.84;686348;28;1215;-83
2022/11/19 00:14:36;;;;;;;12.10;8.07;;;;;;;5.45;61.09;100305.69;690784;28;1134;-84
2022/11/19 00:14:56;;;;;;;12.68;8.48;;;;;;;5.42;61.17;100297.81;690538;28;1196;-84
2022/11/19 00:15:17;;;;;;;12.32;7.90;;;;;;;5.41;61.06;100302.09;691930;28;1312;-84
2022/11/19 00:15:38;;;;;;;12.47;7.70;;;;;;;5.47;61.27;100310.09;693498;28;845;-84
2022/11/19 00:16:06;;;;;;;11.43;7.40;;;;;;;5.48;61.18;100313.59;693244;28;1325;-83
2022/11/19 00:16:26;;;;;;;10.95;7.85;;;;;;;5.45;61.38;100308.28;690555;28;1132;-84
2022/11/19 00:16:47;;;;;;;11.32;8.32;;;;;;;5.39;61.04;100311.50;690522;28;1189;-84
2022/11/19 00:17:08;;;;;;;12.15;8.55;;;;;;;5.41;61.39;100317.59;690530;28;1119;-85
2022/11/19 00:17:28;;;;;;;11.93;8.30;;;;;;;5.40;61.40;100308.09;693483;28;810;-85
2022/11/19 00:17:49;;;;;;;10.73;7.75;;;;;;;5.37;61.45;100305.38;685159;28;1197;-84
2022/11/19 00:18:10;;;;;;;10.48;7.78;;;;;;;5.50;61.22;100321.41;685027;28;1163;-84
2022/11/19 00:18:30;;;;;;;10.95;8.10;;;;;;;5.51;61.01;100323.19;687539;28;1179;-84
2022/11/19 00:18:51;;;;;;;11.43;8.03;;;;;;;5.44;61.19;100322.94;693511;28;1402;-84
2022/11/19 00:19:12;;;;;;;11.23;7.88;;;;;;;5.39;60.87;100319.25;690568;28;1198;-84
2022/11/19 00:19:32;;;;;;;10.25;7.38;;;;;;;5.38;61.27;100311.41;687759;28;1197;-83
2022/11/19 00:19:53;;;;;;;10.05;7.63;;;;;;;5.35;60.90;100307.03;687644;28;1198;-83
2022/11/19 00:20:16;;;;;;;10.20;7.87;;;;;;;5.40;61.13;100315.84;691965;28;1194;-84
2022/11/19 00:20:37;;;;;;;12.05;8.38;;;;;;;5.44;60.94;100319.44;688760;28;1415;-84
2022/11/19 00:21:11;;;;;;;12.40;8.35;;;;;;;5.37;61.18;100305.38;690127;28;1215;-83
2022/11/19 00:21:31;;;;;;;12.50;8.40;;;;;;;5.42;60.92;100319.41;685389;28;1409;-84
2022/11/19 00:21:52;;;;;;;12.80;8.70;;;;;;;5.36;61.00;100308.78;685058;28;1657;-84
2022/11/19 00:22:13;;;;;;;12.70;8.93;;;;;;;5.39;60.49;100314.09;690360;28;1259;-84
2022/11/19 00:22:33;;;;;;;13.00;8.90;;;;;;;5.46;60.95;100321.28;693382;28;1274;-83
2022/11/19 00:22:56;;;;;;;13.23;8.70;;;;;;;5.46;60.82;100326.47;693108;28;1265;-84
2022/11/19 00:23:16;;;;;;;14.45;9.02;;;;;;;5.36;60.92;100308.78;694831;28;1177;-84
2022/11/19 00:23:38;;;;;;;13.97;9.17;;;;;;;5.42;60.75;100315.91;687591;28;1842;-84
2022/11/19 00:23:59;;;;;;;14.20;9.40;;;;;;;5.44;61.01;100322.03;687946;28;1094;-84
2022/11/19 00:24:21;;;;;;;13.23;9.20;;;;;;;5.42;60.40;100324.59;687911;28;1158;-84
2022/11/19 00:24:42;;;;;;;13.40;9.07;;;;;;;5.44;60.58;100316.88;687998;28;1305;-84
2022/11/19 00:25:03;;;;;;;12.88;8.85;;;;;;;5.44;60.80;100320.34;690301;28;1141;-84
2022/11/19 00:25:26;;;;;;;12.60;8.80;;;;;;;5.45;60.67;100319.53;685248;28;1284;-84
2022/11/19 00:25:46;;;;;;;12.35;8.90;;;;;;;5.39;60.90;100314.09;687820;28;1326;-85
2022/11/19 00:26:11;;;;;;;12.37;8.73;;;;;;;5.40;60.77;100315.84;687124;28;1264;-84
2022/11/19 00:26:32;;;;;;;12.20;8.90;;;;;;;5.39;60.52;100314.09;689622;28;1151;-84
2022/11/19 00:26:54;;;;;;;11.50;8.55;;;;;;;5.45;60.66;100319.53;690441;28;1843;-84
2022/11/19 00:27:15;;;;;;;12.63;9.02;;;;;;;5.39;60.60;100303.72;689187;28;1324;-84
2022/11/19 00:27:35;;;;;;;13.00;9.10;;;;;;;5.42;60.73;100322.00;696297;28;1568;-84
2022/11/19 00:27:56;;;;;;;13.10;8.85;;;;;;;5.39;60.81;100314.09;696095;28;1150;-84
2022/11/19 00:28:18;;;;;;;12.15;8.38;;;;;;;5.45;60.41;100321.22;687795;28;1264;-84
2022/11/19 00:28:40;;;;;;;12.30;8.57;;;;;;;5.45;60.88;100314.34;691027;28;1109;-85
2022/11/19 00:29:00;;;;;;;13.35;9.43;;;;;;;5.42;60.32;100314.22;687753;28;955;-84
2022/11/19 00:29:21;;;;;;;13.98;9.80;;;;;;;5.41;60.47;100312.44;687933;28;1015;-84
2022/11/19 00:29:42;;;;;;;14.00;9.80;;;;;;;5.43;60.53;100320.28;684199;28;1144;-84
2022/11/19 00:30:07;;;;;;;14.73;10.33;;;;;;;5.41;60.46;100319.34;686813;28;1381;-84
2022/11/19 00:30:27;;;;;;;15.80;10.70;;;;;;;5.36;60.52;100313.06;687976;28;922;-85
2022/11/19 00:30:48;;;;;;;15.63;10.03;;;;;;;5.33;60.31;100313.81;689711;28;1307;-84
2022/11/19 00:31:13;;;;;;;15.15;9.50;;;;;;;5.42;60.34;100319.41;691213;28;1209;-84
2022/11/19 00:31:34;;;;;;;14.63;9.38;;;;;;;5.40;60.33;100310.66;690880;28;1515;-84
2022/11/19 00:32:00;;;;;;;14.17;9.17;;;;;;;5.48;60.31;100311.88;687568;28;1183;-84
2022/11/19 00:32:21;;;;;;;13.30;9.15;;;;;;;5.47;60.46;100302.34;692836;28;1166;-85
2022/11/19 00:32:42;;;;;;;13.52;9.15;;;;;;;5.50;60.33;100314.53;689666;28;1910;-83
2022/11/19 00:33:03;;;;;;;14.45;9.45;;;;;;;5.38;60.38;100311.41;688122;28;1073;-85
2022/11/19 00:33:24;;;;;;;15.63;9.88;;;;;;;5.29;60.61;100312.81;687467;28;1481;-85
2022/11/19 00:33:45;;;;;;;16.23;9.97;;;;;;;5.31;60.32;100315.47;685401;28;1278;-85
2022/11/19 00:34:06;;;;;;;15.95;10.10;;;;;;;5.28;60.42;100315.34;690531;28;1344;-84
2022/11/19 00:34:26;;;;;;;15.63;9.90;;;;;;;5.43;60.37;100323.75;692396;28;799;-84
2022/11/19 00:34:47;;;;;;;14.93;9.90;;;;;;;5.42;60.48;100309.06;688043;28;1017;-84
2022/11/19 00:35:08;;;;;;;15.35;9.98;;;;;;;5.35;60.16;100304.44;687927;28;1170;-83
2022/11/19 00:35:29;;;;;;;15.15;10.05;;;;;;;5.30;60.22;100309.44;682703;29;1315;-84
2022/11/19 00:35:49;;;;;;;14.75;10.13;;;;;;;5.37;60.11;100312.25;689005;28;1249;-85
2022/11/19 00:36:12;;;;;;;13.23;9.60;;;;;;;5.43;59.94;100320.28;691256;28;1288;-85
2022/11/19 00:36:33;;;;;;;14.30;9.90;;;;;;;5.40;60.38;100315.84;693363;28;1567;-84
2022/11/19 00:36:54;;;;;;;14.87;10.17;;;;;;;5.37;60.22;100325.19;693026;28;1233;-84
2022/11/19 00:37:14;;;;;;;15.48;10.30;;;;;;;5.32;60.18;100317.22;692283;28;1280;-84
2022/11/19 00:37:35;;;;;;;14.75;10.00;;;;;;;5.28;60.52;100313.63;690954;28;740;-84
2022/11/19 00:37:55;;;;;;;14.05;9.73;;;;;;;5.29;60.40;100317.97;693433;28;1191;-84
2022/11/19 00:38:16;;;;;;;13.73;9.43;;;;;;;5.28;60.33;100310.19;695057;28;1589;-84
2022/11/19 00:38:37;;;;;;;13.90;9.52;;;;;;;5.26;60.29;100316.97;688478;28;850;-84
2022/11/19 00:38:58;;;;;;;14.90;9.80;;;;;;;5.17;60.53;100305.41;687746;28;1191;-84
2022/11/19 00:39:19;;;;;;;15.27;10.00;;;;;;;5.25;59.94;100317.78;692520;28;1174;-84
2022/11/19 00:39:40;;;;;;;15.43;10.10;;;;;;;5.26;60.27;100317.88;693543;28;1304;-84
2022/11/19 00:40:01;;;;;;;15.40;10.23;;;;;;;5.25;60.37;100320.38;690589;28;1151;-84
2022/11/19 00:40:21;;;;;;;15.63;10.70;;;;;;;5.27;60.51;100329.13;688064;28;1312;-84
2022/11/19 00:40:42;;;;;;;15.30;10.40;;;;;;;5.25;60.34;100325.56;690863;28;1825;-84
2022/11/19 00:41:03;;;;;;;14.40;9.93;;;;;;;5.24;60.46;100326.38;693415;28;1114;-84
2022/11/19 00:41:24;;;;;;;14.32;9.57;;;;;;;5.16;60.86;100316.59;688062;28;1175;-84
2022/11/19 00:41:44;;;;;;;14.27;9.93;;;;;;;5.20;60.52;100334.03;692353;28;1823;-85
2022/11/19 00:42:05;;;;;;;15.05;10.48;;;;;;;5.13;60.55;100310.38;696116;28;1182;-84
2022/11/19 00:42:25;;;;;;;15.60;10.87;;;;;;;5.13;60.45;100319.06;688989;28;1375;-84
2022/11/19 00:43:45;;;;;;;15.30;10.67;;;;;;;5.11;60.50;100314.63;684738;28;1692;-84
2022/11/19 00:44:06;;;;;;;15.43;10.02;;;;;;;5.11;60.73;100312.94;685344;28;1221;-85
2022/11/19 00:44:27;;;;;;;15.73;10.20;;;;;;;5.10;60.73;100315.44;690646;28;1149;-85
2022/11/19 00:44:47;;;;;;;15.88;10.27;;;;;;;5.10;60.61;100320.63;690709;28;1200;-84
2022/11/19 00:45:08;;;;;;;16.38;10.52;;;;;;;5.10;60.36;100321.53;693278;28;1373;-84
2022/11/19 00:45:29;;;;;;;16.65;10.65;;;;;;;5.11;60.78;100317.22;690812;28;1146;-84
2022/11/19 00:45:49;;;;;;;15.23;10.23;;;;;;;5.11;60.45;100322.38;688060;28;1345;-84
2022/11/19 00:46:11;;;;;;;14.90;10.30;;;;;;;5.15;60.30;100327.75;692964;28;1343;-84
2022/11/19 00:46:31;;;;;;;15.85;10.90;;;;;;;5.08;60.44;100323.13;690736;28;1625;-85
2022/11/19 00:46:52;;;;;;;16.53;11.20;;;;;;;5.05;60.48;100312.66;691052;28;1645;-85
2022/11/19 00:47:13;;;;;;;16.88;11.20;;;;;;;5.09;60.34;100314.53;690521;28;1272;-84
2022/11/19 00:47:33;;;;;;;16.05;10.60;;;;;;;5.10;60.73;100328.38;690900;28;1167;-83
2022/11/19 00:47:54;;;;;;;17.27;11.10;;;;;;;5.01;60.63;100310.75;687710;28;1180;-84
2022/11/19 00:48:14;;;;;;;16.25;10.27;;;;;;;5.03;60.71;100314.31;682684;28;1036;-84
2022/11/19 00:48:37;;;;;;;16.60;10.52;;;;;;;5.07;60.70;100326.53;685712;28;1321;-85
2022/11/19 00:48:59;;;;;;;16.55;10.85;;;;;;;5.02;60.27;100317.69;685402;28;1293;-84
2022/11/19 00:49:19;;;;;;;17.00;10.98;;;;;;;4.98;60.67;100313.22;690671;28;1346;-84
2022/11/19 00:49:40;;;;;;;17.08;11.10;;;;;;;5.06;60.43;100323.09;693766;28;1702;-84
2022/11/19 00:50:01;;;;;;;16.75;10.80;;;;;;;5.06;60.48;100325.69;690747;28;1243;-84
2022/11/19 00:50:22;;;;;;;16.20;11.10;;;;;;;5.09;60.44;100331.78;690985;28;1053;-85
2022/11/19 00:50:42;;;;;;;16.20;10.93;;;;;;;4.97;60.71;100314.03;690911;28;910;-84
2022/11/19 00:51:03;;;;;;;15.73;10.90;;;;;;;5.06;60.66;100322.19;691802;28;1329;-84
2022/11/19 00:51:27;;;;;;;17.35;10.95;;;;;;;5.07;60.51;100327.44;690742;28;1230;-86
2022/11/19 00:51:47;;;;;;;18.20;11.25;;;;;;;5.03;60.84;100324.66;691258;28;1168;-86
2022/11/19 00:52:09;;;;;;;19.30;11.80;;;;;;;5.05;60.29;100318.69;692755;28;1449;-87
2022/11/19 00:52:30;;;;;;;18.13;11.57;;;;;;;5.06;60.56;100327.34;693995;28;1944;-86
2022/11/19 00:52:50;;;;;;;17.07;11.00;;;;;;;5.11;60.72;100333.63;694770;28;1581;-86
2022/11/19 00:53:11;;;;;;;16.80;11.25;;;;;;;5.11;60.51;100331.03;696997;28;1224;-86
2022/11/19 00:53:32;;;;;;;17.10;11.30;;;;;;;5.15;60.42;100329.47;697103;28;1152;-86
2022/11/19 00:53:52;;;;;;;17.08;11.70;;;;;;;4.99;60.52;100320.16;699856;28;1088;-86
2022/11/19 00:54:13;;;;;;;17.13;11.32;;;;;;;5.00;60.73;100321.91;699582;28;1141;-86
2022/11/19 00:54:34;;;;;;;17.10;11.50;;;;;;;4.99;60.03;100321.06;702009;28;1182;-86
2022/11/19 00:54:54;;;;;;;16.55;11.50;;;;;;;4.95;60.29;100310.50;693997;28;1838;-87
2022/11/19 00:55:15;;;;;;;17.30;11.83;;;;;;;4.98;60.28;100316.69;686050;28;1290;-87
2022/11/19 00:55:36;;;;;;;18.25;11.95;;;;;;;5.01;60.64;100321.09;688964;28;1241;-86
2022/11/19 00:56:02;;;;;;;18.38;11.65;;;;;;;4.91;60.57;100318.09;693779;28;1123;-85
2022/11/19 00:56:25;;;;;;;17.75;11.38;;;;;;;4.98;60.67;100327.03;694164;28;1723;-87
2022/11/19 00:56:46;;;;;;;16.20;10.80;;;;;;;4.91;60.09;100323.28;690060;28;1669;-86
2022/11/19 00:57:06;;;;;;;17.13;11.20;;;;;;;4.89;60.47;100312.00;689545;28;1119;-86
2022/11/19 00:57:27;;;;;;;17.63;11.35;;;;;;;4.88;60.37;100320.56;687187;28;1207;-86
2022/11/19 00:57:47;;;;;;;18.53;12.07;;;;;;;4.86;60.54;100322.22;693765;28;1726;-86
2022/11/19 00:58:08;;;;;;;18.52;12.20;;;;;;;4.91;60.49;100328.47;694130;28;1176;-87
2022/11/19 00:58:28;;;;;;;19.15;12.40;;;;;;;4.84;60.55;100313.50;696748;28;1720;-87
2022/11/19 00:58:50;;;;;;;18.67;12.47;;;;;;;4.97;60.62;100340.75;691170;28;1855;-85
2022/11/19 00:59:11;;;;;;;17.73;11.85;;;;;;;4.90;60.56;100326.69;690783;28;1230;-86
2022/11/19 00:59:32;;;;;;;16.98;11.68;;;;;;;4.90;60.56;100324.09;690201;28;1313;-87
2022/11/19 00:59:52;;;;;;;17.20;11.57;;;;;;;4.98;60.36;100336.50;691863;28;1491;-87
2022/11/19 01:00:13;;;;;;;16.30;11.30;;;;;;;4.92;60.49;100317.28;688599;28;1195;-87
2022/11/19 01:00:34;;;;;;;17.00;11.40;;;;;;;4.92;60.20;100327.63;696711;28;1142;-87
2022/11/19 01:00:55;;;;;;;18.60;11.87;;;;;;;5.01;60.24;100336.59;695965;28;1600;-86
2022/11/19 01:01:18;;;;;;;20.65;12.40;;;;;;;4.93;60.32;100324.22;692708;28;1354;-86
2022/11/19 01:01:39;;;;;;;18.85;11.95;;;;;;;4.92;60.50;100321.59;688576;28;1892;-86
2022/11/19 01:01:59;;;;;;;18.87;12.00;;;;;;;4.86;60.37;100322.22;682294;28;1434;-86
2022/11/19 01:02:20;;;;;;;17.65;11.60;;;;;;;4.91;60.40;100333.63;688449;28;1365;-87
2022/11/19 01:02:40;;;;;;;19.10;12.05;;;;;;;5.00;60.33;100347.78;692478;28;1447;-86
2022/11/19 01:03:01;;;;;;;18.47;11.83;;;;;;;4.92;60.31;100326.75;688666;28;1052;-86
2022/11/19 01:03:22;;;;;;;18.65;12.25;;;;;;;4.95;60.45;100331.19;690748;28;1173;-86
2022/11/19 01:03:44;;;;;;;19.77;12.73;;;;;;;4.95;60.29;100339.81;685893;28;1724;-86
2022/11/19 01:04:05;;;;;;;20.00;12.73;;;;;;;4.91;60.25;100328.47;688254;28;1138;-87
2022/11/19 01:04:25;;;;;;;20.17;12.60;;;;;;;4.99;60.13;100344.31;691007;28;1332;-86
2022/11/19 01:04:46;;;;;;;18.45;11.90;;;;;;;4.81;60.23;100328.88;691168;28;1376;-86
2022/11/19 01:05:07;;;;;;;18.23;12.00;;;;;;;4.85;60.27;100335.06;685741;28;1341;-86
2022/11/19 01:05:28;;;;;;;18.58;12.18;;;;;;;4.83;60.52;100335.00;691238;28;1261;-85
2022/11/19 01:05:48;;;;;;;20.50;12.80;;;;;;;4.87;60.38;100344.66;691969;28;1294;-87
2022/11/19 01:06:09;;;;;;;20.85;13.10;;;;;;;4.82;60.34;100340.97;690672;28;1165;-87
2022/11/19 01:06:30;;;;;;;18.70;12.90;;;;;;;4.79;60.58;100341.72;688052;28;1555;-86
2022/11/19 01:06:50;;;;;;;18.03;13.00;;;;;;;4.76;60.64;100325.19;693502;28;1695;-86
2022/11/19 01:07:11;;;;;;;17.02;12.07;;;;;;;4.84;60.34;100341.94;690801;28;1089;-86
2022/11/19 01:07:31;;;;;;;16.52;11.50;;;;;;;4.81;60.35;100330.56;693436;28;1113;-87
2022/11/19 01:07:52;;;;;;;17.33;11.60;;;;;;;4.81;60.51;100344.38;690791;28;1530;-88
2022/11/19 01:08:13;;;;;;;17.95;12.15;;;;;;;4.76;60.24;100335.53;688206;28;1565;-87
2022/11/19 01:08:34;;;;;;;18.33;12.05;;;;;;;4.79;60.46;100331.38;688428;28;823;-87
2022/11/19 01:08:54;;;;;;;17.73;11.60;;;;;;;4.81;60.30;100344.38;690849;28;1728;-86
2022/11/19 01:09:15;;;;;;;18.15;11.68;;;;;;;4.76;60.31;100336.44;690816;28;1201;-86
2022/11/19 01:09:36;;;;;;;17.93;12.07;;;;;;;4.82;60.50;100340.97;688079;28;1176;-86
2022/11/19 01:09:56;;;;;;;17.90;12.30;;;;;;;4.80;60.43;100342.63;685073;28;1276;-85
2022/11/19 01:10:17;;;;;;;17.58;12.27;;;;;;;4.77;60.85;100333.03;690849;28;1182;-86
2022/11/19 01:10:37;;;;;;;17.53;12.10;;;;;;;4.83;60.70;100341.88;690683;28;1522;-86
2022/11/19 01:11:18;;;;;;;18.23;12.40;;;;;;;4.85;60.45;100341.09;690813;28;1330;-86
2022/11/19 01:11:38;;;;;;;19.30;12.32;;;;;;;4.78;60.42;100336.47;685104;28;1608;-86
2022/11/19 01:11:59;;;;;;;19.30;12.27;;;;;;;4.77;60.73;100337.28;685871;28;1470;-87
2022/11/19 01:12:19;;;;;;;17.95;11.93;;;;;;;4.83;60.14;100347.91;688298;28;1116;-86
2022/11/19 01:13:33;;;;;;;18.43;11.83;;;;;;;4.82;60.30;100338.41;691238;28;1915;-87
2022/11/19 01:13:36;;;;;;;20.25;12.68;;;;;;;4.68;60.42;100331.72;690745;28;1166;-86
2022/11/19 01:14:00;;;;;;;18.83;12.20;;;;;;;4.72;60.66;100338.81;692930;28;1053;-86
2022/11/19 01:14:21;;;;;;;18.15;11.68;;;;;;;4.78;60.61;100344.22;693434;28;1181;-86
2022/11/19 01:14:41;;;;;;;19.00;12.00;;;;;;;4.69;60.50;100333.47;688122;28;1936;-87
2022/11/19 01:15:02;;;;;;;19.35;11.90;;;;;;;4.75;60.49;100344.09;688202;28;1001;-87
2022/11/19 01:15:23;;;;;;;19.60;12.40;;;;;;;4.76;60.53;100346.78;690831;28;1158;-86
2022/11/19 01:15:47;;;;;;;19.00;12.53;;;;;;;4.77;60.79;100345.06;688204;28;1650;-86
2022/11/19 01:16:13;;;;;;;22.00;13.00;;;;;;;4.75;60.60;100342.41;690886;28;1193;-86
2022/11/19 01:16:39;;;;;;;23.52;13.27;;;;;;;4.62;60.61;100335.81;692458;28;1959;-86
2022/11/19 01:17:00;;;;;;;23.58;12.85;;;;;;;4.65;60.70;100340.22;685260;28;1313;-87
2022/11/19 01:17:20;;;;;;;22.98;12.50;;;;;;;4.78;60.75;100344.22;687300;28;1186;-87
2022/11/19 01:17:41;;;;;;;23.17;12.70;;;;;;;4.72;60.45;100333.66;687906;28;1129;-87
2022/11/19 01:18:02;;;;;;;18.97;12.17;;;;;;;4.82;60.73;100350.41;690640;28;1149;-87
2022/11/19 01:18:22;;;;;;;18.10;11.80;;;;;;;4.72;60.27;100333.66;682777;29;1317;-87
2022/11/19 01:18:45;;;;;;;17.67;12.00;;;;;;;4.73;60.34;100340.56;690813;28;1305;-86
2022/11/19 01:19:08;;;;;;;18.88;12.13;;;;;;;4.68;60.62;100336.88;693319;28;1431;-86
2022/11/19 01:19:28;;;;;;;19.55;12.50;;;;;;;4.75;60.53;100346.69;693599;28;918;-87
2022/11/19 01:19:49;;;;;;;20.35;12.95;;;;;;;4.70;60.49;100332.66;693300;28;1283;-85
2022/11/19 01:20:10;;;;;;;18.40;12.63;;;;;;;4.77;60.32;100351.13;691097;28;1460;-87
2022/11/19 01:20:30;;;;;;;17.95;12.30;;;;;;;4.69;60.54;100334.38;687813;28;1275;-87
2022/11/19 01:20:51;;;;;;;17.53;12.00;;;;;;;4.74;60.24;100342.34;685931;28;1591;-86
2022/11/19 01:21:12;;;;;;;17.25;12.02;;;;;;;4.74;60.59;100342.34;689466;28;1273;-85
2022/11/19 01:21:34;;;;;;;17.30;11.98;;;;;;;4.79;60.29;100349.47;689615;28;1411;-87
2022/11/19 01:21:55;;;;;;;18.55;12.25;;;;;;;4.74;60.47;100337.16;692871;28;1613;-87
2022/11/19 01:22:15;;;;;;;19.33;12.27;;;;;;;4.79;60.17;100346.91;686450;28;1239;-87
2022/11/19 01:22:36;;;;;;;18.90;12.15;;;;;;;4.71;60.60;100337.03;693644;28;712;-86
2022/11/19 01:22:56;;;;;;;18.80;11.77;;;;;;;4.71;60.27;100342.22;690611;28;1601;-86
2022/11/19 01:23:17;;;;;;;19.53;11.80;;;;;;;4.76;60.57;100351.03;687948;28;1356;-86
2022/11/19 01:23:40;;;;;;;19.85;12.00;;;;;;;4.75;60.46;100345.00;690894;28;1274;-87
2022/11/19 01:24:01;;;;;;;19.92;12.43;;;;;;;4.68;60.39;100342.06;693401;28;1010;-86
2022/11/19 01:24:22;;;;;;;19.13;12.55;;;;;;;4.70;60.39;100341.31;690488;28;1595;-86
2022/11/19 01:24:42;;;;;;;17.98;12.32;;;;;;;4.68;60.55;100337.78;696263;28;1315;-87
2022/11/19 01:25:03;;;;;;;18.67;12.10;;;;;;;4.72;60.51;100344.84;693185;28;1063;-86
2022/11/19 01:25:24;;;;;;;18.33;11.52;;;;;;;4.70;60.35;100341.31;696143;28;1351;-86
2022/11/19 01:25:44;;;;;;;20.55;11.65;;;;;;;4.67;60.43;100343.78;693457;28;1058;-86
2022/11/19 01:26:05;;;;;;;20.23;11.65;;;;;;;4.69;60.37;100349.00;693409;28;1102;-86
2022/11/19 01:26:27;;;;;;;20.23;12.02;;;;;;;4.64;60.74;100346.19;693222;28;1789;-86
2022/11/19 01:26:47;;;;;;;18.48;11.90;;;;;;;4.68;60.56;100331.72;688428;28;1007;-87
2022/11/19 01:27:08;;;;;;;17.92;11.95;;;;;;;4.74;60.29;100342.34;690210;28;1347;-87
2022/11/19 01:27:30;;;;;;;19.23;12.65;;;;;;;4.84;59.90;100349.69;688056;28;1204;-86
2022/11/19 01:27:50;;;;;;;19.75;13.15;;;;;;;4.88;60.11;100356.78;682616;29;1048;-87
2022/11/19 01:28:11;;;;;;;20.00;12.73;;;;;;;4.88;60.09;100346.44;682761;29;1274;-87
2022/11/19 01:28:32;;;;;;;19.93;12.30;;;;;;;4.86;60.11;100345.50;692962;28;1517;-86
2022/11/19 01:28:53;;;;;;;19.00;11.98;;;;;;;4.91;59.77;100356.91;689905;28;1485;-86
2022/11/19 01:29:13;;;;;;;22.75;12.40;;;;;;;4.92;59.79;100347.47;691647;28;1355;-86
2022/11/19 01:29:34;;;;;;;22.52;12.32;;;;;;;4.86;59.74;100357.53;696054;28;1182;-86
2022/11/19 01:30:00;;;;;;;23.50;12.50;;;;;;;4.77;59.92;100353.69;693551;28;1897;-86
2022/11/19 01:30:21;;;;;;;19.25;12.52;;;;;;;4.71;59.98;100347.38;695915;28;1357;-85
2022/11/19 01:30:42;;;;;;;19.70;12.87;;;;;;;4.77;60.29;100360.56;690663;28;1069;-86
2022/11/19 01:31:07;;;;;;;18.30;12.48;;;;;;;4.83;60.00;100360.84;690503;28;1025;-87
2022/11/19 01:31:29;;;;;;;18.95;12.60;;;;;;;4.77;59.94;100337.28;690723;28;1374;-87
2022/11/19 01:31:49;;;;;;;18.83;12.80;;;;;;;4.78;60.19;100339.97;690479;28;1530;-86
2022/11/19 01:32:10;;;;;;;19.40;13.00;;;;;;;4.78;59.85;100346.81;691012;28;1225;-87
2022/11/19 01:32:30;;;;;;;20.52;13.45;;;;;;;4.80;60.04;100347.78;696189;28;1963;-87
2022/11/19 01:32:51;;;;;;;20.40;13.20;;;;;;;4.83;60.04;100342.75;693863;28;1643;-86
2022/11/19 01:33:12;;;;;;;20.55;13.13;;;;;;;4.79;59.95;100351.19;690219;28;1150;-86
2022/11/19 01:33:33;;;;;;;18.90;12.70;;;;;;;4.75;59.92;100344.09;691096;28;1122;-87
2022/11/19 01:33:54;;;;;;;18.17;12.63;;;;;;;4.76;59.98;100351.94;689700;28;1701;-87
2022/11/19 01:34:15;;;;;;;17.00;12.30;;;;;;;4.82;59.96;100360.78;687783;28;1341;-86
2022/11/19 01:34:35;;;;;;;18.00;12.73;;;;;;;4.80;59.81;100358.13;682796;28;1241;-86
2022/11/19 01:34:56;;;;;;;19.83;13.30;;;;;;;4.78;60.03;100349.41;685102;28;1961;-86
2022/11/19 01:35:16;;;;;;;21.73;13.70;;;;;;;4.81;60.00;100357.31;685139;28;1198;-86
2022/11/19 01:35:37;;;;;;;20.93;13.40;;;;;;;4.75;59.87;100339.84;690746;28;1554;-85
2022/11/19 01:36:00;;;;;;;21.35;13.63;;;;;;;4.82;59.83;100359.06;690534;28;1269;-86
2022/11/19 01:36:24;;;;;;;21.85;13.57;;;;;;;4.86;60.13;100362.69;690703;28;1198;-86
2022/11/19 01:36:44;;;;;;;21.38;13.20;;;;;;;4.78;59.81;100349.41;686680;28;1468;-86
2022/11/19 01:37:05;;;;;;;19.77;12.50;;;;;;;4.77;59.93;100353.69;693134;28;1506;-87
2022/11/19 01:37:26;;;;;;;19.60;12.67;;;;;;;4.76;60.09;100351.03;687940;28;1201;-86
2022/11/19 01:37:46;;;;;;;19.20;12.35;;;;;;;4.73;60.28;100345.75;690620;28;1195;-87
2022/11/19 01:38:07;;;;;;;18.45;12.80;;;;;;;4.79;60.08;100348.63;687801;28;1395;-87
2022/11/19 01:38:29;;;;;;;19.37;13.30;;;;;;;4.83;59.85;100358.25;693498;28;1039;-87
2022/11/19 01:38:49;;;;;;;20.50;13.93;;;;;;;4.89;60.01;100367.97;690503;28;1131;-86
2022/11/19 01:39:10;;;;;;;20.38;13.40;;;;;;;4.76;59.80;100351.03;687685;28;1306;-86
2022/11/19 01:39:31;;;;;;;20.02;13.20;;;;;;;4.83;60.04;100357.41;690628;28;764;-87
2022/11/19 01:39:51;;;;;;;19.43;12.70;;;;;;;4.75;59.96;100349.28;688709;28;1871;-87
2022/11/19 01:40:12;;;;;;;21.60;12.70;;;;;;;4.83;59.92;100358.25;689421;28;1143;-87
2022/11/19 01:40:41;;;;;;;21.20;12.60;;;;;;;4.76;59.94;100354.53;687974;28;1289;-86
2022/11/19 01:41:02;;;;;;;20.15;13.00;;;;;;;4.78;60.14;100364.91;684915;28;1378;-86
2022/11/19 01:41:29;;;;;;;19.98;13.25;;;;;;;4.71;60.17;100362.91;689796;28;1293;-86
2022/11/19 01:41:49;;;;;;;20.05;13.43;;;;;;;4.72;60.03;100354.31;688420;28;1115;-86
2022/11/19 01:42:48;;;;;;;19.38;13.18;;;;;;;4.65;60.15;100346.28;687814;28;1280;-86
2022/11/19 01:42:58;;;;;;;18.70;12.38;;;;;;;4.71;59.75;100352.56;687261;28;1221;-86
2022/11/19 01:43:19;;;;;;;19.08;12.57;;;;;;;4.78;59.79;100372.66;687644;28;1180;-86
2022/11/19 01:43:50;;;;;;;19.73;12.80;;;;;;;4.76;60.22;100364.88;688022;28;753;-86
2022/11/19 01:44:57;;;;;;;19.55;12.75;;;;;;;4.78;60.03;100355.47;687650;28;1217;-86